sensor_id;sensor_type;location;lat;lon;timestamp;pressure;altitude;pressure_sealevel;temperature;humidity
17873;BME280;36318;42.620;23.338;2023-03-14T00:01:19;93163.69;;;1.63;100.00
17873;BME280;36318;42.620;23.338;2023-03-14T00:03:46;93156.91;;;1.62;100.00
17873;BME280;36318;42.620;23.338;2023-03-14T00:06:13;93151.19;;;1.57;99.45
17873;BME280;36318;42.620;23.338;2023-03-14T00:08:40;93143.44;;;1.59;99.11
17873;BME280;36318;42.620;23.338;2023-03-14T00:11:07;93143.38;;;1.60;98.39
17873;BME280;36318;42.620;23.338;2023-03-14T00:13:34;93136.53;;;1.61;99.21
17873;BME280;36318;42.620;23.338;2023-03-14T00:16:03;93134.06;;;1.59;100.00
17873;BME280;36318;42.620;23.338;2023-03-14T00:18:29;93137.28;;;1.63;99.19
17873;BME280;36318;42.620;23.338;2023-03-14T00:20:57;93123.03;;;1.57;98.76
17873;BME280;36318;42.620;23.338;2023-03-14T00:23:23;93118.16;;;1.53;100.00
17873;BME280;36318;42.620;23.338;2023-03-14T00:25:50;93104.75;;;1.48;100.00
17873;BME280;36318;42.620;23.338;2023-03-14T00:28:16;93103.41;;;1.58;99.10
17873;BME280;36318;42.620;23.338;2023-03-14T00:30:43;93093.06;;;1.42;100.00
17873;BME280;36318;42.620;23.338;2023-03-14T00:33:11;93097.00;;;1.31;100.00
17873;BME280;36318;42.620;23.338;2023-03-14T00:35:37;93093.69;;;1.29;100.00
17873;BME280;36318;42.620;23.338;2023-03-14T00:38:04;93080.78;;;1.32;100.00
17873;BME280;36318;42.620;23.338;2023-03-14T00:40:30;93091.28;;;1.26;100.00
17873;BME280;36318;42.620;23.338;2023-03-14T00:42:57;93094.91;;;1.22;100.00
17873;BME280;36318;42.620;23.338;2023-03-14T00:45:23;93084.81;;;1.18;100.00
17873;BME280;36318;42.620;23.338;2023-03-14T00:47:50;93079.69;;;1.18;100.00
17873;BME280;36318;42.620;23.338;2023-03-14T00:50:18;93074.38;;;1.23;100.00
17873;BME280;36318;42.620;23.338;2023-03-14T00:52:44;93076.69;;;1.28;100.00
17873;BME280;36318;42.620;23.338;2023-03-14T00:55:12;93089.91;;;1.18;100.00
17873;BME280;36318;42.620;23.338;2023-03-14T00:57:39;93072.69;;;1.03;100.00
17873;BME280;36318;42.620;23.338;2023-03-14T01:00:06;93075.53;;;0.97;100.00
17873;BME280;36318;42.620;23.338;2023-03-14T01:02:36;93083.25;;;0.96;100.00
17873;BME280;36318;42.620;23.338;2023-03-14T01:05:03;93082.38;;;0.97;100.00
17873;BME280;36318;42.620;23.338;2023-03-14T01:07:31;93079.34;;;0.89;100.00
17873;BME280;36318;42.620;23.338;2023-03-14T01:09:58;93072.63;;;0.86;100.00
17873;BME280;36318;42.620;23.338;2023-03-14T01:12:24;93075.69;;;0.94;100.00
17873;BME280;36318;42.620;23.338;2023-03-14T01:14:51;93069.59;;;0.97;100.00
17873;BME280;36318;42.620;23.338;2023-03-14T01:17:18;93073.19;;;0.93;100.00
17873;BME280;36318;42.620;23.338;2023-03-14T01:19:44;93074.97;;;0.91;100.00
17873;BME280;36318;42.620;23.338;2023-03-14T01:22:11;93066.34;;;0.93;100.00
17873;BME280;36318;42.620;23.338;2023-03-14T01:24:39;93064.81;;;0.89;100.00
17873;BME280;36318;42.620;23.338;2023-03-14T01:27:05;93050.66;;;0.82;100.00
17873;BME280;36318;42.620;23.338;2023-03-14T01:29:32;93048.31;;;0.78;100.00
17873;BME280;36318;42.620;23.338;2023-03-14T01:31:58;93044.72;;;0.82;100.00
17873;BME280;36318;42.620;23.338;2023-03-14T01:34:25;93044.53;;;0.86;100.00
17873;BME280;36318;42.620;23.338;2023-03-14T01:36:51;93045.03;;;0.94;100.00
17873;BME280;36318;42.620;23.338;2023-03-14T01:39:18;93046.94;;;0.89;100.00
17873;BME280;36318;42.620;23.338;2023-03-14T01:41:46;93036.88;;;0.86;100.00
17873;BME280;36318;42.620;23.338;2023-03-14T01:44:13;93040.88;;;0.92;100.00
17873;BME280;36318;42.620;23.338;2023-03-14T01:46:40;93031.47;;;0.92;100.00
17873;BME280;36318;42.620;23.338;2023-03-14T01:49:09;93022.03;;;0.94;100.00
17873;BME280;36318;42.620;23.338;2023-03-14T01:51:39;93025.81;;;0.86;100.00
17873;BME280;36318;42.620;23.338;2023-03-14T01:54:09;93022.44;;;0.85;100.00
17873;BME280;36318;42.620;23.338;2023-03-14T01:56:36;93018.81;;;0.89;100.00
17873;BME280;36318;42.620;23.338;2023-03-14T01:59:06;93017.41;;;0.84;100.00
17873;BME280;36318;42.620;23.338;2023-03-14T02:01:34;93026.09;;;0.80;100.00
17873;BME280;36318;42.620;23.338;2023-03-14T02:04:01;93030.84;;;0.69;100.00
17873;BME280;36318;42.620;23.338;2023-03-14T02:06:31;93027.75;;;0.62;100.00
17873;BME280;36318;42.620;23.338;2023-03-14T02:09:00;93035.47;;;0.60;100.00
17873;BME280;36318;42.620;23.338;2023-03-14T02:11:28;93033.59;;;0.64;100.00
17873;BME280;36318;42.620;23.338;2023-03-14T02:13:55;93026.69;;;0.66;100.00
17873;BME280;36318;42.620;23.338;2023-03-14T02:16:24;93020.84;;;0.64;100.00
17873;BME280;36318;42.620;23.338;2023-03-14T02:18:51;93024.16;;;0.66;100.00
17873;BME280;36318;42.620;23.338;2023-03-14T02:21:18;93019.16;;;0.63;100.00
17873;BME280;36318;42.620;23.338;2023-03-14T02:23:48;93014.81;;;0.65;100.00
17873;BME280;36318;42.620;23.338;2023-03-14T02:26:20;93013.03;;;0.67;100.00
17873;BME280;36318;42.620;23.338;2023-03-14T02:28:49;93012.13;;;0.68;100.00
17873;BME280;36318;42.620;23.338;2023-03-14T02:31:16;93012.84;;;0.72;100.00
17873;BME280;36318;42.620;23.338;2023-03-14T02:33:42;93002.13;;;0.64;100.00
17873;BME280;36318;42.620;23.338;2023-03-14T02:36:10;93003.84;;;0.63;100.00
17873;BME280;36318;42.620;23.338;2023-03-14T02:38:39;93008.97;;;0.63;100.00
17873;BME280;36318;42.620;23.338;2023-03-14T02:41:07;93009.78;;;0.64;100.00
17873;BME280;36318;42.620;23.338;2023-03-14T02:43:34;93006.63;;;0.58;100.00
17873;BME280;36318;42.620;23.338;2023-03-14T02:46:02;93019.31;;;0.60;100.00
17873;BME280;36318;42.620;23.338;2023-03-14T02:48:31;93016.69;;;0.62;100.00
17873;BME280;36318;42.620;23.338;2023-03-14T02:51:00;93020.13;;;0.60;100.00
17873;BME280;36318;42.620;23.338;2023-03-14T02:53:28;93022.28;;;0.51;100.00
17873;BME280;36318;42.620;23.338;2023-03-14T02:55:55;93017.56;;;0.42;100.00
17873;BME280;36318;42.620;23.338;2023-03-14T02:58:21;93018.59;;;0.38;100.00
17873;BME280;36318;42.620;23.338;2023-03-14T03:00:48;93025.09;;;0.45;100.00
17873;BME280;36318;42.620;23.338;2023-03-14T03:03:16;93024.88;;;0.49;100.00
17873;BME280;36318;42.620;23.338;2023-03-14T03:05:43;93024.97;;;0.48;100.00
17873;BME280;36318;42.620;23.338;2023-03-14T03:08:09;93028.41;;;0.47;100.00
17873;BME280;36318;42.620;23.338;2023-03-14T03:10:36;93021.66;;;0.46;100.00
17873;BME280;36318;42.620;23.338;2023-03-14T03:13:03;93018.06;;;0.50;100.00
17873;BME280;36318;42.620;23.338;2023-03-14T03:15:29;93013.16;;;0.45;100.00
17873;BME280;36318;42.620;23.338;2023-03-14T03:17:56;93009.66;;;0.48;100.00
17873;BME280;36318;42.620;23.338;2023-03-14T03:20:24;93015.75;;;0.44;100.00
17873;BME280;36318;42.620;23.338;2023-03-14T03:22:50;93011.97;;;0.34;100.00
17873;BME280;36318;42.620;23.338;2023-03-14T03:25:17;93011.00;;;0.36;100.00
17873;BME280;36318;42.620;23.338;2023-03-14T03:27:44;93010.25;;;0.34;100.00
17873;BME280;36318;42.620;23.338;2023-03-14T03:30:10;93022.94;;;0.36;100.00
17873;BME280;36318;42.620;23.338;2023-03-14T03:32:37;93023.00;;;0.34;100.00
17873;BME280;36318;42.620;23.338;2023-03-14T03:35:04;93017.91;;;0.34;100.00
17873;BME280;36318;42.620;23.338;2023-03-14T03:37:32;93009.63;;;0.29;100.00
17873;BME280;36318;42.620;23.338;2023-03-14T03:39:59;93014.44;;;0.35;100.00
17873;BME280;36318;42.620;23.338;2023-03-14T03:42:26;93006.59;;;0.40;100.00
17873;BME280;36318;42.620;23.338;2023-03-14T03:44:52;93012.06;;;0.51;100.00
17873;BME280;36318;42.620;23.338;2023-03-14T03:47:19;93020.63;;;0.50;100.00
17873;BME280;36318;42.620;23.338;2023-03-14T03:49:46;93019.28;;;0.41;100.00
17873;BME280;36318;42.620;23.338;2023-03-14T03:52:12;93020.38;;;0.36;100.00
17873;BME280;36318;42.620;23.338;2023-03-14T03:54:40;93031.88;;;0.26;100.00
17873;BME280;36318;42.620;23.338;2023-03-14T03:57:07;93033.03;;;0.19;100.00
17873;BME280;36318;42.620;23.338;2023-03-14T03:59:34;93035.59;;;0.19;100.00
17873;BME280;36318;42.620;23.338;2023-03-14T04:02:00;93033.81;;;0.21;100.00
17873;BME280;36318;42.620;23.338;2023-03-14T04:04:27;93034.06;;;0.15;100.00
17873;BME280;36318;42.620;23.338;2023-03-14T04:06:53;93041.00;;;0.11;100.00
17873;BME280;36318;42.620;23.338;2023-03-14T04:09:20;93026.78;;;0.06;100.00
17873;BME280;36318;42.620;23.338;2023-03-14T04:11:48;93023.34;;;0.07;100.00
17873;BME280;36318;42.620;23.338;2023-03-14T04:14:14;93024.31;;;0.04;100.00
17873;BME280;36318;42.620;23.338;2023-03-14T04:16:41;93014.81;;;0.08;100.00
17873;BME280;36318;42.620;23.338;2023-03-14T04:19:07;93011.75;;;-0.01;100.00
17873;BME280;36318;42.620;23.338;2023-03-14T04:21:34;93012.75;;;-0.05;100.00
17873;BME280;36318;42.620;23.338;2023-03-14T04:24:01;93010.84;;;0.00;100.00
17873;BME280;36318;42.620;23.338;2023-03-14T04:26:27;93012.31;;;0.06;100.00
17873;BME280;36318;42.620;23.338;2023-03-14T04:28:55;93006.25;;;0.09;100.00
17873;BME280;36318;42.620;23.338;2023-03-14T04:31:22;93003.97;;;0.03;100.00
17873;BME280;36318;42.620;23.338;2023-03-14T04:33:48;92989.47;;;0.03;100.00
17873;BME280;36318;42.620;23.338;2023-03-14T04:36:15;92985.66;;;0.13;100.00
17873;BME280;36318;42.620;23.338;2023-03-14T04:38:41;92987.13;;;0.19;100.00
17873;BME280;36318;42.620;23.338;2023-03-14T04:41:08;92989.16;;;0.11;100.00
17873;BME280;36318;42.620;23.338;2023-03-14T04:43:34;92985.28;;;0.02;100.00
17873;BME280;36318;42.620;23.338;2023-03-14T04:46:02;92985.63;;;-0.06;100.00
17873;BME280;36318;42.620;23.338;2023-03-14T04:48:29;92981.50;;;-0.10;100.00
17873;BME280;36318;42.620;23.338;2023-03-14T04:50:56;92989.38;;;-0.14;100.00
17873;BME280;36318;42.620;23.338;2023-03-14T04:53:22;92974.91;;;-0.14;100.00
17873;BME280;36318;42.620;23.338;2023-03-14T04:55:49;92969.94;;;-0.17;100.00
17873;BME280;36318;42.620;23.338;2023-03-14T04:58:15;92964.53;;;-0.11;100.00
17873;BME280;36318;42.620;23.338;2023-03-14T05:00:42;92970.97;;;-0.02;100.00
17873;BME280;36318;42.620;23.338;2023-03-14T05:03:10;92966.34;;;0.08;100.00
17873;BME280;36318;42.620;23.338;2023-03-14T05:05:36;92966.53;;;0.22;100.00
17873;BME280;36318;42.620;23.338;2023-03-14T05:08:03;92969.59;;;0.30;100.00
17873;BME280;36318;42.620;23.338;2023-03-14T05:10:29;92969.81;;;0.25;100.00
17873;BME280;36318;42.620;23.338;2023-03-14T05:12:56;92970.56;;;0.27;100.00
17873;BME280;36318;42.620;23.338;2023-03-14T05:15:23;92973.91;;;0.48;100.00
17873;BME280;36318;42.620;23.338;2023-03-14T05:17:49;92967.34;;;0.61;100.00
17873;BME280;36318;42.620;23.338;2023-03-14T05:20:17;92966.16;;;0.68;100.00
17873;BME280;36318;42.620;23.338;2023-03-14T05:22:44;92964.41;;;0.70;100.00
17873;BME280;36318;42.620;23.338;2023-03-14T05:25:10;92967.84;;;0.69;100.00
17873;BME280;36318;42.620;23.338;2023-03-14T05:27:37;92961.50;;;0.78;100.00
17873;BME280;36318;42.620;23.338;2023-03-14T05:30:04;92964.03;;;0.96;100.00
17873;BME280;36318;42.620;23.338;2023-03-14T05:32:31;92959.03;;;1.12;100.00
17873;BME280;36318;42.620;23.338;2023-03-14T05:34:58;92966.50;;;1.34;100.00
17873;BME280;36318;42.620;23.338;2023-03-14T05:37:26;92965.00;;;1.47;100.00
17873;BME280;36318;42.620;23.338;2023-03-14T05:39:52;92964.34;;;1.60;100.00
17873;BME280;36318;42.620;23.338;2023-03-14T05:42:19;92961.72;;;1.79;100.00
17873;BME280;36318;42.620;23.338;2023-03-14T05:44:45;92966.72;;;1.98;100.00
17873;BME280;36318;42.620;23.338;2023-03-14T05:47:12;92967.41;;;2.18;100.00
17873;BME280;36318;42.620;23.338;2023-03-14T05:49:39;92965.47;;;2.39;100.00
17873;BME280;36318;42.620;23.338;2023-03-14T05:52:05;92965.84;;;2.64;100.00
17873;BME280;36318;42.620;23.338;2023-03-14T05:54:34;92971.66;;;2.83;100.00
17873;BME280;36318;42.620;23.338;2023-03-14T05:57:00;92971.34;;;3.05;100.00
17873;BME280;36318;42.620;23.338;2023-03-14T05:59:27;92967.78;;;3.23;100.00
17873;BME280;36318;42.620;23.338;2023-03-14T06:01:53;92967.16;;;3.49;100.00
17873;BME280;36318;42.620;23.338;2023-03-14T06:04:20;92969.91;;;3.76;100.00
17873;BME280;36318;42.620;23.338;2023-03-14T06:06:47;92964.09;;;3.88;98.63
17873;BME280;36318;42.620;23.338;2023-03-14T06:09:13;92965.03;;;4.01;94.64
17873;BME280;36318;42.620;23.338;2023-03-14T06:11:41;92973.69;;;4.14;93.85
17873;BME280;36318;42.620;23.338;2023-03-14T06:14:08;92966.84;;;4.29;94.83
17873;BME280;36318;42.620;23.338;2023-03-14T06:16:35;92958.97;;;4.32;93.13
17873;BME280;36318;42.620;23.338;2023-03-14T06:19:01;92959.75;;;4.33;90.53
17873;BME280;36318;42.620;23.338;2023-03-14T06:21:28;92964.34;;;4.28;89.26
17873;BME280;36318;42.620;23.338;2023-03-14T06:23:55;92958.78;;;4.35;91.03
17873;BME280;36318;42.620;23.338;2023-03-14T06:26:21;92960.72;;;4.46;91.35
17873;BME280;36318;42.620;23.338;2023-03-14T06:28:49;92965.94;;;4.58;89.75
17873;BME280;36318;42.620;23.338;2023-03-14T06:31:18;92957.69;;;4.67;86.55
17873;BME280;36318;42.620;23.338;2023-03-14T06:33:45;92966.19;;;4.96;85.47
17873;BME280;36318;42.620;23.338;2023-03-14T06:36:11;92970.44;;;5.65;80.74
17873;BME280;36318;42.620;23.338;2023-03-14T06:38:38;92973.53;;;6.86;73.20
17873;BME280;36318;42.620;23.338;2023-03-14T06:41:05;92953.75;;;8.64;64.78
17873;BME280;36318;42.620;23.338;2023-03-14T06:43:31;92949.75;;;9.59;56.57
17873;BME280;36318;42.620;23.338;2023-03-14T06:45:59;92938.81;;;9.88;54.76
17873;BME280;36318;42.620;23.338;2023-03-14T06:48:26;92934.41;;;10.31;52.54
17873;BME280;36318;42.620;23.338;2023-03-14T06:50:52;92929.31;;;10.92;50.64
17873;BME280;36318;42.620;23.338;2023-03-14T06:53:19;92916.94;;;12.51;48.91
17873;BME280;36318;42.620;23.338;2023-03-14T06:55:45;92908.22;;;13.81;45.49
17873;BME280;36318;42.620;23.338;2023-03-14T06:58:12;92910.66;;;13.64;44.65
17873;BME280;36318;42.620;23.338;2023-03-14T07:00:39;92918.22;;;12.84;46.66
17873;BME280;36318;42.620;23.338;2023-03-14T07:03:07;92908.47;;;13.60;45.60
17873;BME280;36318;42.620;23.338;2023-03-14T07:05:33;92908.19;;;14.25;44.82
17873;BME280;36318;42.620;23.338;2023-03-14T07:08:00;92905.47;;;13.82;45.27
17873;BME280;36318;42.620;23.338;2023-03-14T07:10:26;92902.66;;;13.93;45.55
17873;BME280;36318;42.620;23.338;2023-03-14T07:12:53;92899.00;;;15.00;44.20
17873;BME280;36318;42.620;23.338;2023-03-14T07:15:20;92886.97;;;15.83;42.35
17873;BME280;36318;42.620;23.338;2023-03-14T07:17:46;92883.09;;;15.95;41.82
17873;BME280;36318;42.620;23.338;2023-03-14T07:20:15;92890.03;;;15.03;41.69
17873;BME280;36318;42.620;23.338;2023-03-14T07:22:41;92893.50;;;14.24;42.81
17873;BME280;36318;42.620;23.338;2023-03-14T07:25:08;92905.28;;;13.66;43.03
17873;BME280;36318;42.620;23.338;2023-03-14T07:27:37;92898.88;;;14.05;44.03
17873;BME280;36318;42.620;23.338;2023-03-14T07:30:04;92895.75;;;14.80;42.89
17873;BME280;36318;42.620;23.338;2023-03-14T07:32:31;92900.69;;;15.85;41.08
17873;BME280;36318;42.620;23.338;2023-03-14T07:34:57;92882.78;;;17.19;39.43
17873;BME280;36318;42.620;23.338;2023-03-14T07:37:25;92874.16;;;18.19;37.93
17873;BME280;36318;42.620;23.338;2023-03-14T07:39:52;92877.41;;;18.74;36.88
17873;BME280;36318;42.620;23.338;2023-03-14T07:42:18;92870.81;;;18.25;36.73
17873;BME280;36318;42.620;23.338;2023-03-14T07:44:45;92871.84;;;17.62;37.60
17873;BME280;36318;42.620;23.338;2023-03-14T07:47:11;92869.31;;;18.08;37.97
17873;BME280;36318;42.620;23.338;2023-03-14T07:49:38;92857.50;;;18.94;36.95
17873;BME280;36318;42.620;23.338;2023-03-14T07:52:05;92853.03;;;19.76;35.87
17873;BME280;36318;42.620;23.338;2023-03-14T07:54:32;92861.34;;;19.94;35.15
17873;BME280;36318;42.620;23.338;2023-03-14T07:56:59;92855.38;;;20.85;34.31
17873;BME280;36318;42.620;23.338;2023-03-14T07:59:26;92855.69;;;21.52;33.78
17873;BME280;36318;42.620;23.338;2023-03-14T08:01:53;92847.78;;;21.93;33.08
17873;BME280;36318;42.620;23.338;2023-03-14T08:04:19;92858.44;;;21.72;32.77
17873;BME280;36318;42.620;23.338;2023-03-14T08:06:46;92861.03;;;21.24;33.31
17873;BME280;36318;42.620;23.338;2023-03-14T08:09:12;92859.63;;;21.63;33.36
17873;BME280;36318;42.620;23.338;2023-03-14T08:11:40;92855.38;;;22.02;32.76
17873;BME280;36318;42.620;23.338;2023-03-14T08:14:07;92851.22;;;22.47;32.16
17873;BME280;36318;42.620;23.338;2023-03-14T08:16:34;92853.56;;;22.83;31.36
17873;BME280;36318;42.620;23.338;2023-03-14T08:19:00;92857.63;;;22.99;31.53
17873;BME280;36318;42.620;23.338;2023-03-14T08:21:27;92851.91;;;23.28;30.88
17873;BME280;36318;42.620;23.338;2023-03-14T08:23:53;92857.22;;;23.35;30.77
17873;BME280;36318;42.620;23.338;2023-03-14T08:26:20;92853.78;;;22.08;31.30
17873;BME280;36318;42.620;23.338;2023-03-14T08:28:48;92855.91;;;20.32;33.13
17873;BME280;36318;42.620;23.338;2023-03-14T08:31:14;92864.19;;;19.63;33.73
17873;BME280;36318;42.620;23.338;2023-03-14T08:33:41;92852.06;;;20.76;33.01
17873;BME280;36318;42.620;23.338;2023-03-14T08:36:08;92851.53;;;22.05;32.17
17873;BME280;36318;42.620;23.338;2023-03-14T08:38:34;92847.47;;;22.89;31.32
17873;BME280;36318;42.620;23.338;2023-03-14T08:41:01;92849.13;;;21.76;31.27
17873;BME280;36318;42.620;23.338;2023-03-14T08:43:29;92838.44;;;22.51;30.62
17873;BME280;36318;42.620;23.338;2023-03-14T08:45:58;92836.03;;;22.82;29.98
17873;BME280;36318;42.620;23.338;2023-03-14T08:48:25;92833.63;;;23.00;30.05
17873;BME280;36318;42.620;23.338;2023-03-14T08:50:52;92833.16;;;23.36;29.28
17873;BME280;36318;42.620;23.338;2023-03-14T08:53:18;92830.44;;;20.60;30.85
17873;BME280;36318;42.620;23.338;2023-03-14T08:55:50;92834.28;;;20.85;32.33
17873;BME280;36318;42.620;23.338;2023-03-14T08:58:18;92820.38;;;23.07;30.42
17873;BME280;36318;42.620;23.338;2023-03-14T09:00:44;92812.53;;;23.71;28.76
17873;BME280;36318;42.620;23.338;2023-03-14T09:03:12;92811.16;;;24.57;28.84
17873;BME280;36318;42.620;23.338;2023-03-14T09:05:39;92807.59;;;25.44;28.07
17873;BME280;36318;42.620;23.338;2023-03-14T09:08:06;92800.25;;;25.64;28.12
17873;BME280;36318;42.620;23.338;2023-03-14T09:10:33;92795.44;;;26.09;27.09
17873;BME280;36318;42.620;23.338;2023-03-14T09:12:59;92795.53;;;25.48;27.57
17873;BME280;36318;42.620;23.338;2023-03-14T09:15:26;92785.72;;;25.24;28.14
17873;BME280;36318;42.620;23.338;2023-03-14T09:17:52;92782.66;;;25.02;27.44
17873;BME280;36318;42.620;23.338;2023-03-14T09:20:20;92775.25;;;24.48;28.04
17873;BME280;36318;42.620;23.338;2023-03-14T09:22:47;92787.56;;;23.21;29.39
17873;BME280;36318;42.620;23.338;2023-03-14T09:25:14;92772.91;;;23.12;29.53
17873;BME280;36318;42.620;23.338;2023-03-14T09:27:41;92772.38;;;20.81;30.84
17873;BME280;36318;42.620;23.338;2023-03-14T09:30:07;92772.47;;;18.65;33.93
17873;BME280;36318;42.620;23.338;2023-03-14T09:32:34;92766.44;;;18.19;35.01
17873;BME280;36318;42.620;23.338;2023-03-14T09:35:01;92767.22;;;18.42;35.42
17873;BME280;36318;42.620;23.338;2023-03-14T09:37:29;92763.78;;;18.64;35.09
17873;BME280;36318;42.620;23.338;2023-03-14T09:39:55;92760.41;;;18.33;34.67
17873;BME280;36318;42.620;23.338;2023-03-14T09:42:23;92754.97;;;18.34;35.70
17873;BME280;36318;42.620;23.338;2023-03-14T09:44:53;92756.09;;;18.40;35.40
17873;BME280;36318;42.620;23.338;2023-03-14T09:47:20;92751.63;;;17.80;35.30
17873;BME280;36318;42.620;23.338;2023-03-14T09:49:49;92743.28;;;16.44;36.71
17873;BME280;36318;42.620;23.338;2023-03-14T09:52:16;92738.22;;;16.59;37.16
17873;BME280;36318;42.620;23.338;2023-03-14T09:54:46;92738.28;;;16.10;37.84
17873;BME280;36318;42.620;23.338;2023-03-14T09:57:15;92731.88;;;15.57;38.44
17873;BME280;36318;42.620;23.338;2023-03-14T09:59:44;92735.81;;;16.01;38.64
17873;BME280;36318;42.620;23.338;2023-03-14T10:02:14;92730.88;;;16.54;38.06
17873;BME280;36318;42.620;23.338;2023-03-14T10:04:41;92723.66;;;16.48;37.57
17873;BME280;36318;42.620;23.338;2023-03-14T10:07:10;92716.25;;;17.07;37.66
17873;BME280;36318;42.620;23.338;2023-03-14T10:09:40;92723.66;;;16.48;38.21
17873;BME280;36318;42.620;23.338;2023-03-14T10:12:08;92715.16;;;16.54;38.13
17873;BME280;36318;42.620;23.338;2023-03-14T10:14:35;92724.88;;;15.73;38.30
17873;BME280;36318;42.620;23.338;2023-03-14T10:17:06;92709.56;;;15.28;38.46
17873;BME280;36318;42.620;23.338;2023-03-14T10:19:34;92708.91;;;15.26;39.87
17873;BME280;36318;42.620;23.338;2023-03-14T10:22:01;92713.19;;;14.52;40.26
17873;BME280;36318;42.620;23.338;2023-03-14T10:24:29;92708.53;;;13.86;41.06
17873;BME280;36318;42.620;23.338;2023-03-14T10:26:59;92689.94;;;13.81;41.99
17873;BME280;36318;42.620;23.338;2023-03-14T10:29:28;92689.09;;;14.06;42.02
17873;BME280;36318;42.620;23.338;2023-03-14T10:31:57;92664.75;;;15.07;41.34
17873;BME280;36318;42.620;23.338;2023-03-14T10:34:27;92671.03;;;15.95;39.67
17873;BME280;36318;42.620;23.338;2023-03-14T10:36:54;92661.25;;;16.44;38.98
17873;BME280;36318;42.620;23.338;2023-03-14T10:39:23;92657.22;;;16.80;38.09
17873;BME280;36318;42.620;23.338;2023-03-14T10:41:51;92657.84;;;17.21;39.13
17873;BME280;36318;42.620;23.338;2023-03-14T10:44:19;92644.38;;;16.62;38.08
17873;BME280;36318;42.620;23.338;2023-03-14T10:46:50;92636.72;;;16.53;38.27
17873;BME280;36318;42.620;23.338;2023-03-14T10:49:23;92635.47;;;16.71;39.00
17873;BME280;36318;42.620;23.338;2023-03-14T10:51:51;92629.13;;;15.06;40.68
17873;BME280;36318;42.620;23.338;2023-03-14T10:54:19;92625.75;;;15.38;40.91
17873;BME280;36318;42.620;23.338;2023-03-14T10:56:47;92620.03;;;15.75;40.89
17873;BME280;36318;42.620;23.338;2023-03-14T10:59:22;92605.47;;;16.35;40.71
17873;BME280;36318;42.620;23.338;2023-03-14T11:01:51;92608.88;;;15.97;39.89
17873;BME280;36318;42.620;23.338;2023-03-14T11:04:25;92597.38;;;15.98;40.17
17873;BME280;36318;42.620;23.338;2023-03-14T11:06:59;92600.06;;;16.37;40.39
17873;BME280;36318;42.620;23.338;2023-03-14T11:09:29;92588.88;;;16.04;40.00
17873;BME280;36318;42.620;23.338;2023-03-14T11:12:02;92581.53;;;16.54;39.75
17873;BME280;36318;42.620;23.338;2023-03-14T11:14:31;92570.19;;;16.62;40.48
17873;BME280;36318;42.620;23.338;2023-03-14T11:17:04;92581.03;;;16.82;40.13
17873;BME280;36318;42.620;23.338;2023-03-14T11:19:42;92573.22;;;16.73;40.16
17873;BME280;36318;42.620;23.338;2023-03-14T11:22:14;92564.44;;;17.12;40.41
17873;BME280;36318;42.620;23.338;2023-03-14T11:24:55;92559.81;;;16.68;39.95
17873;BME280;36318;42.620;23.338;2023-03-14T11:27:28;92550.44;;;16.04;40.63
17873;BME280;36318;42.620;23.338;2023-03-14T11:29:58;92543.50;;;15.65;41.04
17873;BME280;36318;42.620;23.338;2023-03-14T11:32:34;92535.50;;;15.58;41.21
17873;BME280;36318;42.620;23.338;2023-03-14T11:35:03;92524.59;;;16.01;40.60
17873;BME280;36318;42.620;23.338;2023-03-14T11:37:32;92524.66;;;16.24;40.37
17873;BME280;36318;42.620;23.338;2023-03-14T11:40:00;92519.63;;;16.45;39.71
17873;BME280;36318;42.620;23.338;2023-03-14T11:42:32;92522.34;;;16.29;40.60
17873;BME280;36318;42.620;23.338;2023-03-14T11:44:59;92524.91;;;15.51;41.76
17873;BME280;36318;42.620;23.338;2023-03-14T11:47:26;92507.22;;;15.45;41.14
17873;BME280;36318;42.620;23.338;2023-03-14T11:49:58;92510.91;;;16.22;41.46
17873;BME280;36318;42.620;23.338;2023-03-14T11:52:28;92501.63;;;15.73;40.51
17873;BME280;36318;42.620;23.338;2023-03-14T11:54:56;92493.69;;;15.97;40.76
17873;BME280;36318;42.620;23.338;2023-03-14T11:57:24;92492.09;;;15.80;41.72
17873;BME280;36318;42.620;23.338;2023-03-14T11:59:52;92489.28;;;16.28;39.25
17873;BME280;36318;42.620;23.338;2023-03-14T12:02:24;92486.91;;;16.95;39.25
17873;BME280;36318;42.620;23.338;2023-03-14T12:04:55;92482.91;;;16.84;39.44
17873;BME280;36318;42.620;23.338;2023-03-14T12:07:28;92478.03;;;17.18;38.38
17873;BME280;36318;42.620;23.338;2023-03-14T12:09:56;92467.75;;;16.71;38.55
17873;BME280;36318;42.620;23.338;2023-03-14T12:12:24;92460.84;;;16.48;38.53
17873;BME280;36318;42.620;23.338;2023-03-14T12:14:52;92462.34;;;16.42;38.57
17873;BME280;36318;42.620;23.338;2023-03-14T12:17:20;92452.31;;;16.54;39.73
17873;BME280;36318;42.620;23.338;2023-03-14T12:19:47;92446.09;;;17.15;38.96
17873;BME280;36318;42.620;23.338;2023-03-14T12:22:24;92436.63;;;17.43;38.23
17873;BME280;36318;42.620;23.338;2023-03-14T12:24:55;92431.88;;;17.61;37.33
17873;BME280;36318;42.620;23.338;2023-03-14T12:30:10;92428.50;;;17.38;37.51
17873;BME280;36318;42.620;23.338;2023-03-14T12:32:41;92421.91;;;17.86;37.86
17873;BME280;36318;42.620;23.338;2023-03-14T12:37:50;92413.38;;;17.40;37.27
17873;BME280;36318;42.620;23.338;2023-03-14T12:40:19;92410.06;;;17.75;36.99
17873;BME280;36318;42.620;23.338;2023-03-14T12:42:56;92414.13;;;17.63;37.36
17873;BME280;36318;42.620;23.338;2023-03-14T12:45:24;92402.50;;;17.14;37.88
17873;BME280;36318;42.620;23.338;2023-03-14T12:50:40;92399.00;;;17.80;38.39
17873;BME280;36318;42.620;23.338;2023-03-14T12:55:56;92392.56;;;17.39;36.80
17873;BME280;36318;42.620;23.338;2023-03-14T12:58:26;92383.09;;;16.86;38.34
17873;BME280;36318;42.620;23.338;2023-03-14T13:00:57;92379.56;;;17.60;37.52
17873;BME280;36318;42.620;23.338;2023-03-14T13:03:26;92376.09;;;18.24;37.40